Time;durP1;ratioP1;P1;durP2;ratioP2;P2;SDS_P1;SDS_P2;PMS_P1;PMS_P2;Temp;Humidity;BMP_temperature;BMP_pressure;BME280_temperature;BME280_humidity;BME280_pressure;Samples;Min_cycle;Max_cycle;Signal;HPM_P1;HPM_P2
2021/03/11 00:00:39;;;;;;;29.10;15.15;;;0.80;70.50;;;;;;5070806;28;20040;-60
2021/03/11 00:03:06;;;;;;;34.53;17.50;;;0.80;70.70;;;;;;5070939;28;20025;-60
2021/03/11 00:05:33;;;;;;;33.42;18.02;;;0.90;71.10;;;;;;5070908;28;20036;-60
2021/03/11 00:07:58;;;;;;;35.45;17.38;;;1.00;72.20;;;;;;5069699;28;20265;-60
2021/03/11 00:10:24;;;;;;;32.78;16.55;;;1.10;72.70;;;;;;5070900;28;20119;-60
2021/03/11 00:12:50;;;;;;;37.85;18.30;;;1.10;72.80;;;;;;5069548;28;20021;-60
2021/03/11 00:15:18;;;;;;;38.05;16.67;;;1.20;73.80;;;;;;5070655;28;20028;-59
2021/03/11 00:17:44;;;;;;;37.70;17.98;;;1.20;73.40;;;;;;5070578;28;20475;-60
2021/03/11 00:20:13;;;;;;;35.75;17.67;;;1.30;74.40;;;;;;5070580;28;20024;-60
2021/03/11 00:22:39;;;;;;;40.90;20.33;;;1.30;74.70;;;;;;5070455;28;20471;-60
2021/03/11 00:25:07;;;;;;;44.88;18.70;;;1.30;75.00;;;;;;5070540;28;20510;-59
2021/03/11 00:27:33;;;;;;;39.60;19.65;;;1.30;75.50;;;;;;5069734;28;20076;-60
2021/03/11 00:29:58;;;;;;;39.53;19.77;;;1.40;75.90;;;;;;5070067;28;20028;-60
2021/03/11 00:32:24;;;;;;;35.42;15.68;;;1.40;76.50;;;;;;5070660;28;20028;-58
2021/03/11 00:34:49;;;;;;;42.67;20.83;;;1.40;76.30;;;;;;5070415;28;20484;-59
2021/03/11 00:37:15;;;;;;;46.17;21.83;;;1.40;77.20;;;;;;5070572;28;20475;-60
2021/03/11 00:39:40;;;;;;;34.42;18.83;;;1.50;78.10;;;;;;5062764;28;20025;-60
2021/03/11 00:42:06;;;;;;;47.78;21.95;;;1.50;79.10;;;;;;5069512;28;20048;-60
2021/03/11 00:44:31;;;;;;;51.10;23.20;;;1.60;80.10;;;;;;5069485;28;20052;-60
2021/03/11 00:46:57;;;;;;;48.55;23.65;;;1.70;80.80;;;;;;5070229;28;20025;-60
2021/03/11 00:49:23;;;;;;;45.70;21.27;;;1.70;81.60;;;;;;5070452;28;20075;-60
2021/03/11 00:51:48;;;;;;;44.63;20.65;;;1.70;81.60;;;;;;5070255;28;20036;-59
2021/03/11 00:54:14;;;;;;;45.30;21.02;;;1.70;82.20;;;;;;5070280;28;20049;-60
2021/03/11 00:56:39;;;;;;;52.78;25.63;;;1.70;82.10;;;;;;5069887;28;20400;-59
2021/03/11 00:59:05;;;;;;;47.78;23.90;;;1.80;84.00;;;;;;5070254;28;20043;-60
2021/03/11 01:01:31;;;;;;;47.78;24.10;;;1.80;83.80;;;;;;5070960;28;20460;-60
2021/03/11 01:03:56;;;;;;;54.75;24.73;;;1.90;84.10;;;;;;5071060;28;20099;-60
2021/03/11 01:06:22;;;;;;;43.85;22.67;;;1.90;84.90;;;;;;5070998;28;20098;-60
2021/03/11 01:08:47;;;;;;;41.75;21.58;;;1.90;84.40;;;;;;5071070;28;20032;-60
2021/03/11 01:11:13;;;;;;;53.70;26.67;;;1.90;86.00;;;;;;5072793;28;20515;-60
2021/03/11 01:13:38;;;;;;;63.00;29.17;;;2.00;85.20;;;;;;5074125;28;20032;-60
2021/03/11 01:16:04;;;;;;;47.90;23.83;;;2.00;87.40;;;;;;5074668;28;20025;-59
2021/03/11 01:18:30;;;;;;;56.40;27.33;;;2.10;87.20;;;;;;5075025;28;20035;-60
2021/03/11 01:20:56;;;;;;;69.43;31.30;;;2.10;88.20;;;;;;5074634;28;20025;-59
2021/03/11 01:23:21;;;;;;;60.28;29.25;;;2.20;89.70;;;;;;5074851;28;20070;-60
2021/03/11 01:25:47;;;;;;;54.17;26.70;;;2.30;89.40;;;;;;5074446;28;20036;-60
2021/03/11 01:28:12;;;;;;;62.33;30.02;;;2.30;89.50;;;;;;5073980;28;20043;-60
2021/03/11 01:30:38;;;;;;;66.70;30.42;;;2.30;89.40;;;;;;5074397;28;20028;-57
2021/03/11 01:33:04;;;;;;;59.60;29.05;;;2.30;90.10;;;;;;5073306;28;20025;-60
2021/03/11 01:35:29;;;;;;;61.30;29.80;;;2.30;90.20;;;;;;5074617;28;20028;-59
2021/03/11 01:37:55;;;;;;;49.35;24.33;;;2.40;90.50;;;;;;5074570;28;20528;-59
2021/03/11 01:40:20;;;;;;;59.83;28.20;;;2.40;90.40;;;;;;5074085;28;20047;-60
2021/03/11 01:42:46;;;;;;;50.28;24.70;;;2.40;90.90;;;;;;5073414;28;20032;-59
2021/03/11 01:45:12;;;;;;;49.75;25.83;;;2.40;90.60;;;;;;5074254;28;20069;-60
2021/03/11 01:47:37;;;;;;;57.53;26.73;;;2.30;90.60;;;;;;5074172;28;20020;-60
2021/03/11 01:50:06;;;;;;;64.13;29.20;;;2.30;91.00;;;;;;5074118;28;20610;-60
2021/03/11 01:52:33;;;;;;;65.95;31.70;;;2.40;92.00;;;;;;5062928;28;20032;-59
2021/03/11 01:54:58;;;;;;;70.03;33.63;;;2.50;91.60;;;;;;5073835;28;20051;-60
2021/03/11 01:57:24;;;;;;;68.85;33.90;;;2.60;92.40;;;;;;5073263;28;20387;-60
2021/03/11 01:59:51;;;;;;;56.28;28.58;;;2.70;92.20;;;;;;5073786;28;20089;-60
2021/03/11 02:02:17;;;;;;;62.05;30.55;;;2.70;92.10;;;;;;5073801;28;20016;-60
2021/03/11 02:04:43;;;;;;;52.70;26.70;;;2.70;91.90;;;;;;5073977;28;20035;-60
2021/03/11 02:07:09;;;;;;;52.67;25.40;;;2.80;91.70;;;;;;5073877;28;20103;-59
2021/03/11 02:09:34;;;;;;;67.60;29.55;;;2.70;91.80;;;;;;5073815;28;20429;-60
2021/03/11 02:12:12;;;;;;;63.08;31.40;;;2.80;91.50;;;;;;5072830;28;20070;-60
2021/03/11 02:14:58;;;;;;;70.60;31.10;;;2.80;91.80;;;;;;5073898;28;20036;-60
2021/03/11 02:17:30;;;;;;;66.75;33.10;;;2.90;92.20;;;;;;5073619;28;20043;-59
2021/03/11 02:20:21;;;;;;;61.00;30.92;;;3.00;92.50;;;;;;5073456;28;20028;-59
2021/03/11 02:23:21;;;;;;;67.63;32.15;;;3.00;92.40;;;;;;5073201;28;20029;-59
2021/03/11 02:26:07;;;;;;;64.72;31.48;;;3.10;92.50;;;;;;5073547;28;20627;-59
2021/03/11 02:28:55;;;;;;;69.90;32.72;;;3.10;92.30;;;;;;5072724;28;20035;-60
2021/03/11 02:31:21;;;;;;;57.92;30.20;;;3.20;92.50;;;;;;5073520;28;20103;-60
2021/03/11 02:33:49;;;;;;;66.93;31.00;;;3.20;92.00;;;;;;5073334;28;20491;-59
2021/03/11 02:36:16;;;;;;;69.38;33.70;;;3.20;91.70;;;;;;5073408;28;20472;-59
2021/03/11 02:38:45;;;;;;;59.22;30.92;;;3.30;92.20;;;;;;5073108;28;20395;-57
2021/03/11 02:41:13;;;;;;;56.30;27.88;;;3.30;91.70;;;;;;5073124;28;20032;-60
2021/03/11 02:43:39;;;;;;;55.47;28.60;;;3.40;91.80;;;;;;5072495;28;20023;-60
2021/03/11 02:46:06;;;;;;;69.10;33.65;;;3.30;91.70;;;;;;5073100;28;20070;-58
2021/03/11 02:48:33;;;;;;;66.45;34.60;;;3.30;92.10;;;;;;5073108;28;20036;-59
2021/03/11 02:50:59;;;;;;;73.93;35.17;;;3.40;92.20;;;;;;5073066;28;20056;-60
2021/03/11 02:53:26;;;;;;;67.78;34.78;;;3.40;92.10;;;;;;5073023;28;20078;-59
2021/03/11 02:55:53;;;;;;;67.32;32.85;;;3.50;91.80;;;;;;5072862;28;20044;-60
2021/03/11 02:58:19;;;;;;;68.10;33.38;;;3.50;91.90;;;;;;5071959;28;20071;-59
2021/03/11 03:00:45;;;;;;;60.17;28.83;;;3.50;91.70;;;;;;5072936;28;20028;-60
2021/03/11 03:03:12;;;;;;;67.22;31.83;;;3.50;91.80;;;;;;5072570;28;20478;-60
2021/03/11 03:05:39;;;;;;;74.10;34.05;;;3.50;92.00;;;;;;5072939;28;20032;-59
2021/03/11 03:08:07;;;;;;;67.15;34.97;;;3.60;91.80;;;;;;5072483;28;20028;-58
2021/03/11 03:10:35;;;;;;;67.63;33.20;;;3.60;92.00;;;;;;5072937;28;20055;-59
2021/03/11 03:13:09;;;;;;;60.03;29.17;;;3.70;91.60;;;;;;5071865;28;20023;-59
2021/03/11 03:15:35;;;;;;;67.70;31.17;;;3.60;91.80;;;;;;5072970;28;20020;-59
2021/03/11 03:18:02;;;;;;;58.70;29.40;;;3.70;91.70;;;;;;5092357;28;20028;-59
2021/03/11 03:20:28;;;;;;;60.92;29.23;;;3.70;91.40;;;;;;5067904;28;20451;-58
2021/03/11 03:22:54;;;;;;;76.50;31.80;;;3.70;91.40;;;;;;5053393;28;20045;-59
2021/03/11 03:25:20;;;;;;;54.75;28.35;;;3.70;91.60;;;;;;5053655;28;20040;-59
2021/03/11 03:27:45;;;;;;;57.55;29.13;;;3.80;91.40;;;;;;5052612;28;20056;-59
2021/03/11 03:30:15;;;;;;;56.80;28.90;;;3.80;91.50;;;;;;5053507;28;20060;-59
2021/03/11 03:32:41;;;;;;;64.20;31.30;;;3.80;91.60;;;;;;5053079;28;20040;-59
2021/03/11 03:35:09;;;;;;;60.63;28.45;;;3.80;91.60;;;;;;5052800;28;20025;-59
2021/03/11 03:37:36;;;;;;;61.72;30.25;;;3.80;91.70;;;;;;5053408;28;20032;-59
2021/03/11 03:40:03;;;;;;;54.42;27.42;;;3.70;91.80;;;;;;5053102;28;20033;-59
2021/03/11 03:42:30;;;;;;;66.10;30.85;;;3.80;92.00;;;;;;5052176;28;20431;-59
2021/03/11 03:44:58;;;;;;;52.47;28.60;;;3.80;92.20;;;;;;5053217;28;20052;-59
2021/03/11 03:47:24;;;;;;;61.80;29.75;;;3.80;92.20;;;;;;5053116;28;20021;-59
2021/03/11 03:49:50;;;;;;;64.85;32.83;;;3.80;92.60;;;;;;5052921;28;20096;-60
2021/03/11 03:52:17;;;;;;;66.57;33.13;;;3.80;93.40;;;;;;5070983;28;20560;-60
2021/03/11 03:54:43;;;;;;;62.38;31.85;;;3.80;93.50;;;;;;5072905;28;20423;-59
2021/03/11 03:57:21;;;;;;;68.20;34.03;;;3.80;94.20;;;;;;5072034;28;20040;-60
2021/03/11 03:59:50;;;;;;;69.70;33.90;;;3.70;94.60;;;;;;5072963;28;20041;-57
2021/03/11 04:02:17;;;;;;;61.67;32.00;;;3.70;95.30;;;;;;5072730;28;20049;-60
2021/03/11 04:04:47;;;;;;;68.30;34.50;;;3.70;96.00;;;;;;5072819;28;20038;-59
2021/03/11 04:07:16;;;;;;;66.47;32.80;;;3.70;96.70;;;;;;5072753;28;20031;-60
2021/03/11 04:09:43;;;;;;;73.13;33.70;;;3.60;97.20;;;;;;5071535;28;20059;-59
2021/03/11 04:12:10;;;;;;;71.68;35.78;;;3.60;98.60;;;;;;5071515;28;20035;-60
2021/03/11 04:14:39;;;;;;;66.07;31.65;;;3.60;99.70;;;;;;5072629;28;20055;-59
2021/03/11 04:17:07;;;;;;;58.30;29.48;;;3.60;99.80;;;;;;5072451;28;20025;-59
2021/03/11 04:19:35;;;;;;;65.05;31.55;;;3.50;99.90;;;;;;5072441;28;20495;-59
2021/03/11 04:22:02;;;;;;;67.70;33.67;;;3.50;99.90;;;;;;5072470;28;20111;-59
2021/03/11 04:24:29;;;;;;;64.10;30.23;;;3.50;99.90;;;;;;5072556;28;20028;-58
2021/03/11 04:26:54;;;;;;;64.70;32.00;;;3.50;99.90;;;;;;5071443;28;20047;-59
2021/03/11 04:29:20;;;;;;;66.20;32.38;;;3.40;99.90;;;;;;5072225;28;20501;-60
2021/03/11 04:31:46;;;;;;;63.75;30.27;;;3.40;99.90;;;;;;5072457;28;20032;-59
2021/03/11 04:34:12;;;;;;;73.32;35.55;;;3.30;99.90;;;;;;5072411;28;20061;-60
2021/03/11 04:36:38;;;;;;;76.05;36.33;;;3.30;99.90;;;;;;5072411;28;20505;-60
2021/03/11 04:39:04;;;;;;;73.97;35.28;;;3.30;99.90;;;;;;5072226;28;20024;-59
2021/03/11 04:41:31;;;;;;;65.93;33.35;;;3.30;99.90;;;;;;5072569;28;20491;-59
2021/03/11 04:44:01;;;;;;;72.18;35.83;;;3.20;99.90;;;;;;5071398;28;20073;-59
2021/03/11 04:46:27;;;;;;;71.53;34.55;;;3.20;99.90;;;;;;5072353;28;20103;-59
2021/03/11 04:48:53;;;;;;;76.60;36.55;;;3.10;99.90;;;;;;5072313;28;20025;-59
2021/03/11 04:51:19;;;;;;;82.45;36.80;;;3.10;99.90;;;;;;5072124;28;20012;-59
2021/03/11 04:53:45;;;;;;;81.78;36.78;;;3.10;99.90;;;;;;5072150;28;20037;-59
2021/03/11 04:56:12;;;;;;;72.32;32.88;;;3.10;99.90;;;;;;5072154;28;20032;-59
2021/03/11 04:58:38;;;;;;;84.30;38.22;;;3.10;99.90;;;;;;5070977;28;20142;-59
2021/03/11 05:01:12;;;;;;;80.85;36.22;;;3.10;99.90;;;;;;5072211;28;20024;-59
2021/03/11 05:03:42;;;;;;;83.43;35.67;;;3.20;99.90;;;;;;5072340;28;20016;-59
2021/03/11 05:06:08;;;;;;;78.63;35.75;;;3.20;99.90;;;;;;5070633;28;20021;-59
2021/03/11 05:08:33;;;;;;;65.68;31.52;;;3.20;99.90;;;;;;5071903;28;20066;-59
2021/03/11 05:10:58;;;;;;;80.57;36.40;;;3.20;99.90;;;;;;5071884;28;20138;-59
2021/03/11 05:13:24;;;;;;;77.28;36.25;;;3.20;99.90;;;;;;5071089;28;20024;-59
2021/03/11 05:15:50;;;;;;;74.53;35.78;;;3.30;99.90;;;;;;5072181;28;20495;-59
2021/03/11 05:18:15;;;;;;;79.78;34.78;;;3.30;99.90;;;;;;5071802;28;20028;-58
2021/03/11 05:20:41;;;;;;;80.45;37.42;;;3.20;99.90;;;;;;5071821;28;20029;-59
2021/03/11 05:23:06;;;;;;;83.80;37.28;;;3.20;99.90;;;;;;5071819;28;20029;-59
2021/03/11 05:25:32;;;;;;;78.78;34.40;;;3.30;99.90;;;;;;5072052;28;20090;-59
2021/03/11 05:27:57;;;;;;;76.03;35.70;;;3.30;99.90;;;;;;5070901;28;20494;-59
2021/03/11 05:30:24;;;;;;;73.55;32.63;;;3.20;99.90;;;;;;5071887;28;20032;-59
2021/03/11 05:32:50;;;;;;;78.65;35.03;;;3.30;99.90;;;;;;5071747;28;20503;-59
2021/03/11 05:35:15;;;;;;;77.40;35.47;;;3.30;99.90;;;;;;5071728;28;20021;-59
2021/03/11 05:37:41;;;;;;;80.00;37.03;;;3.30;99.90;;;;;;5070159;28;20024;-59
2021/03/11 05:40:12;;;;;;;77.07;34.15;;;3.30;99.90;;;;;;5071553;28;20502;-59
2021/03/11 05:42:39;;;;;;;75.22;35.63;;;3.40;99.90;;;;;;5070806;28;20364;-60
2021/03/11 05:45:06;;;;;;;71.15;33.83;;;3.40;99.90;;;;;;5067394;28;20020;-59
2021/03/11 05:47:33;;;;;;;76.68;34.60;;;3.30;99.90;;;;;;5070938;28;20044;-59
2021/03/11 05:49:59;;;;;;;76.90;35.25;;;3.40;99.90;;;;;;5071681;28;20023;-59
2021/03/11 05:52:26;;;;;;;81.82;35.05;;;3.40;99.90;;;;;;5071802;28;20067;-59
2021/03/11 05:54:53;;;;;;;69.82;31.13;;;3.40;99.90;;;;;;5071536;28;20426;-60
2021/03/11 05:57:19;;;;;;;71.88;32.40;;;3.40;99.90;;;;;;5073001;28;20024;-59
2021/03/11 05:59:48;;;;;;;64.13;29.80;;;3.40;99.90;;;;;;5075503;28;20064;-60
2021/03/11 06:02:14;;;;;;;71.45;32.33;;;3.40;99.90;;;;;;5075471;28;20029;-57
2021/03/11 06:04:41;;;;;;;77.10;35.45;;;3.40;99.90;;;;;;5075490;28;20043;-60
2021/03/11 06:07:07;;;;;;;79.38;36.05;;;3.50;99.90;;;;;;5075402;28;20114;-59
2021/03/11 06:09:33;;;;;;;75.43;33.92;;;3.50;99.90;;;;;;5075228;28;20172;-58
2021/03/11 06:12:00;;;;;;;66.18;31.40;;;3.50;99.90;;;;;;5074433;28;20031;-59
2021/03/11 06:14:26;;;;;;;79.57;36.05;;;3.50;99.90;;;;;;5075265;28;20033;-59
2021/03/11 06:17:00;;;;;;;71.75;34.05;;;3.60;99.90;;;;;;5075287;28;20538;-60
2021/03/11 06:19:27;;;;;;;57.38;29.00;;;3.60;99.90;;;;;;5075070;28;20037;-59
2021/03/11 06:21:53;;;;;;;77.65;36.33;;;3.60;99.90;;;;;;5074880;28;20108;-59
2021/03/11 06:24:21;;;;;;;74.97;34.03;;;3.60;99.90;;;;;;5074956;28;20095;-59
2021/03/11 06:26:46;;;;;;;65.03;30.98;;;3.70;99.90;;;;;;5073879;28;20017;-59
2021/03/11 06:29:12;;;;;;;68.35;31.33;;;3.60;99.90;;;;;;5073608;28;20033;-59
2021/03/11 06:31:38;;;;;;;81.20;37.08;;;3.60;99.90;;;;;;5074981;28;20025;-59
2021/03/11 06:34:21;;;;;;;75.35;32.88;;;3.70;99.90;;;;;;5074930;28;20025;-59
2021/03/11 06:36:48;;;;;;;76.82;32.53;;;3.70;99.90;;;;;;5074867;28;20062;-57
2021/03/11 06:39:31;;;;;;;82.72;37.83;;;3.80;99.90;;;;;;5074658;28;20029;-59
2021/03/11 06:41:58;;;;;;;76.57;34.70;;;3.80;99.90;;;;;;5073510;28;20028;-59
2021/03/11 06:44:45;;;;;;;76.40;33.60;;;3.80;99.90;;;;;;5074618;28;20024;-60
2021/03/11 06:47:12;;;;;;;84.78;37.20;;;3.90;99.90;;;;;;5074615;28;20055;-58
2021/03/11 06:50:01;;;;;;;78.95;35.92;;;3.90;99.90;;;;;;5074582;28;20414;-59
2021/03/11 06:52:28;;;;;;;81.30;37.47;;;3.90;99.90;;;;;;5074277;28;20025;-60
2021/03/11 06:54:58;;;;;;;87.18;37.45;;;3.90;99.90;;;;;;5074266;28;20059;-59
2021/03/11 06:57:32;;;;;;;85.07;39.05;;;3.90;99.90;;;;;;5073098;28;20107;-59
2021/03/11 07:00:17;;;;;;;89.93;39.78;;;3.90;99.90;;;;;;5074270;28;20056;-59
2021/03/11 07:02:54;;;;;;;82.82;37.53;;;3.90;99.90;;;;;;5074317;28;20027;-59
2021/03/11 07:05:21;;;;;;;97.68;40.30;;;3.90;99.90;;;;;;5074171;28;20025;-59
2021/03/11 07:07:47;;;;;;;90.60;40.83;;;3.90;99.90;;;;;;5073386;28;20032;-59
2021/03/11 07:10:24;;;;;;;87.03;36.83;;;3.90;99.90;;;;;;5073842;28;20546;-59
2021/03/11 07:12:50;;;;;;;;;;;3.90;99.90;;;;;;5073545;28;20024;-58
2021/03/11 07:15:17;;;;;;;;;;;3.90;99.90;;;;;;5074507;28;19911;-59
2021/03/11 07:17:42;;;;;;;76.75;35.17;;;3.90;99.90;;;;;;5074182;28;19904;-59
2021/03/11 07:20:14;;;;;;;92.43;39.58;;;3.90;99.90;;;;;;5073951;28;20051;-56
2021/03/11 07:22:40;;;;;;;98.05;39.10;;;3.90;99.90;;;;;;5074094;28;20649;-59
2021/03/11 07:25:27;;;;;;;96.95;41.15;;;3.90;99.90;;;;;;5073774;28;20021;-58
2021/03/11 07:27:53;;;;;;;96.78;41.13;;;3.90;99.90;;;;;;5072679;28;20037;-60
2021/03/11 07:30:20;;;;;;;92.90;37.40;;;3.90;99.90;;;;;;5073683;28;20024;-59
2021/03/11 07:32:46;;;;;;;100.32;42.75;;;3.90;99.90;;;;;;5073748;28;20099;-60
2021/03/11 07:35:17;;;;;;;85.30;39.03;;;3.90;99.90;;;;;;5073557;28;20048;-60
2021/03/11 07:37:47;;;;;;;96.18;41.55;;;3.90;99.90;;;;;;5073839;28;20032;-59
2021/03/11 07:40:13;;;;;;;103.85;41.50;;;3.90;99.90;;;;;;5073280;28;20035;-58
2021/03/11 07:42:41;;;;;;;93.05;40.20;;;3.90;99.90;;;;;;5072293;28;20021;-59
2021/03/11 07:45:09;;;;;;;100.70;39.10;;;3.90;99.90;;;;;;5073513;28;20472;-59
2021/03/11 07:47:35;;;;;;;90.20;38.55;;;3.90;99.90;;;;;;5073385;28;20021;-59
2021/03/11 07:50:02;;;;;;;93.70;39.20;;;3.90;99.90;;;;;;5073395;28;20033;-60
2021/03/11 07:52:28;;;;;;;98.18;39.95;;;3.90;99.90;;;;;;5073258;28;20035;-59
2021/03/11 07:54:54;;;;;;;98.90;40.47;;;3.90;99.90;;;;;;5072976;28;20044;-59
2021/03/11 07:57:21;;;;;;;78.97;33.97;;;3.90;99.90;;;;;;5072045;28;20025;-59
2021/03/11 07:59:46;;;;;;;68.05;30.83;;;3.90;99.90;;;;;;5073063;28;20077;-59
2021/03/11 08:02:16;;;;;;;74.07;32.25;;;4.00;99.90;;;;;;5073096;28;20024;-58
2021/03/11 08:04:43;;;;;;;63.55;28.65;;;4.00;99.90;;;;;;5073127;28;20031;-59
2021/03/11 08:07:20;;;;;;;81.85;36.70;;;4.00;99.90;;;;;;5073081;28;20472;-59
2021/03/11 08:09:49;;;;;;;72.35;33.35;;;4.00;99.90;;;;;;5072872;28;20032;-60
2021/03/11 08:12:32;;;;;;;75.05;34.38;;;4.00;99.90;;;;;;5071962;28;20043;-59
2021/03/11 08:15:02;;;;;;;71.75;32.30;;;4.10;99.90;;;;;;5072980;28;20480;-59
2021/03/11 08:17:33;;;;;;;56.33;27.52;;;4.10;99.90;;;;;;5072950;28;20028;-58
2021/03/11 08:19:59;;;;;;;66.25;29.20;;;4.10;99.90;;;;;;5072518;28;20103;-59
2021/03/11 08:22:55;;;;;;;65.60;29.98;;;4.20;99.90;;;;;;5072769;28;20032;-59
2021/03/11 08:25:33;;;;;;;76.07;33.97;;;4.10;99.90;;;;;;5072579;28;20028;-59
2021/03/11 08:28:09;;;;;;;65.43;29.95;;;4.20;99.90;;;;;;5071681;28;20065;-59
2021/03/11 08:30:37;;;;;;;63.83;30.42;;;4.30;99.90;;;;;;5072687;28;20051;-59
2021/03/11 08:33:04;;;;;;;79.50;32.10;;;4.30;99.90;;;;;;5072805;28;20519;-59
2021/03/11 08:35:43;;;;;;;58.15;28.27;;;4.30;99.90;;;;;;5072538;28;20033;-59
2021/03/11 08:38:21;;;;;;;72.32;32.17;;;4.40;99.90;;;;;;5072827;28;20476;-60
2021/03/11 08:40:56;;;;;;;51.05;25.35;;;4.40;99.90;;;;;;5072421;28;20539;-59
2021/03/11 08:43:40;;;;;;;55.58;25.73;;;4.40;99.90;;;;;;5071405;28;20376;-59
2021/03/11 08:46:14;;;;;;;66.18;30.95;;;4.30;99.90;;;;;;5071252;28;20020;-59
2021/03/11 08:49:00;;;;;;;73.32;31.48;;;4.40;99.90;;;;;;5072614;28;20054;-58
2021/03/11 08:51:25;;;;;;;71.45;33.03;;;4.40;99.90;;;;;;5072424;28;20024;-59
2021/03/11 08:53:52;;;;;;;66.90;30.17;;;4.50;99.90;;;;;;5072505;28;20439;-59
2021/03/11 08:56:18;;;;;;;50.50;24.25;;;4.60;99.90;;;;;;5072172;28;20082;-59
2021/03/11 08:58:57;;;;;;;47.78;24.42;;;4.60;99.90;;;;;;5071186;28;20033;-60
2021/03/11 09:01:31;;;;;;;50.55;24.25;;;4.60;99.90;;;;;;5072549;28;20056;-58
2021/03/11 09:03:57;;;;;;;60.05;28.88;;;4.60;99.90;;;;;;5072535;28;20394;-59
2021/03/11 09:06:58;;;;;;;53.72;27.52;;;4.70;99.90;;;;;;5072380;28;20020;-60
2021/03/11 09:09:44;;;;;;;65.75;30.40;;;4.80;99.90;;;;;;5071189;28;20391;-59
2021/03/11 09:12:30;;;;;;;58.65;28.58;;;4.90;99.90;;;;;;5070780;28;20585;-60
2021/03/11 09:14:57;;;;;;;67.47;30.13;;;4.90;99.90;;;;;;5072368;28;20032;-58
2021/03/11 09:17:25;;;;;;;51.05;24.13;;;4.90;99.90;;;;;;5072289;28;20037;-60
2021/03/11 09:19:54;;;;;;;58.03;28.50;;;4.90;99.90;;;;;;5072339;28;20029;-59
2021/03/11 09:22:40;;;;;;;61.03;28.58;;;4.90;99.90;;;;;;5072284;28;20379;-59
2021/03/11 09:25:11;;;;;;;61.42;28.83;;;4.90;99.90;;;;;;5072272;28;20013;-56
2021/03/11 09:27:50;;;;;;;55.10;28.52;;;4.90;99.90;;;;;;5065680;28;20101;-59
2021/03/11 09:30:17;;;;;;;62.47;29.08;;;5.00;99.90;;;;;;5071837;28;20028;-60
2021/03/11 09:32:42;;;;;;;53.25;24.30;;;5.00;99.90;;;;;;5074538;28;20033;-60
2021/03/11 09:35:10;;;;;;;46.92;24.20;;;4.90;99.90;;;;;;5075877;28;20076;-60
2021/03/11 09:37:56;;;;;;;45.15;22.85;;;4.90;99.90;;;;;;5075714;28;20033;-60
2021/03/11 09:40:22;;;;;;;;;;;5.00;99.90;;;;;;5077997;28;20133;-59
2021/03/11 09:43:15;;;;;;;39.60;18.23;;;5.00;99.90;;;;;;5094727;28;19915;-59
2021/03/11 09:45:52;;;;;;;47.92;22.92;;;4.90;99.90;;;;;;5095985;28;20039;-59
2021/03/11 09:48:20;;;;;;;48.88;22.67;;;4.90;99.90;;;;;;5095606;28;20111;-59
2021/03/11 09:51:07;;;;;;;41.20;20.40;;;4.90;99.90;;;;;;5089935;28;20379;-58
2021/03/11 09:53:35;;;;;;;34.75;18.33;;;4.90;99.90;;;;;;5075620;28;20028;-59
2021/03/11 09:56:02;;;;;;;55.15;27.13;;;5.00;99.90;;;;;;5075543;28;20043;-59
2021/03/11 09:58:28;;;;;;;51.88;24.88;;;5.00;99.90;;;;;;5074102;28;20070;-59
2021/03/11 10:00:53;;;;;;;40.80;21.00;;;5.10;99.90;;;;;;5075398;28;20710;-59
2021/03/11 10:03:25;;;;;;;44.53;22.15;;;5.20;99.90;;;;;;5075413;28;20111;-59
2021/03/11 10:05:54;;;;;;;39.15;16.45;;;5.20;99.90;;;;;;5075348;28;20020;-59
2021/03/11 10:08:34;;;;;;;44.63;21.90;;;5.20;99.90;;;;;;5075476;28;20100;-59
2021/03/11 10:11:18;;;;;;;43.10;20.60;;;5.20;99.90;;;;;;5075239;28;20031;-59
2021/03/11 10:13:47;;;;;;;36.33;20.15;;;5.30;99.90;;;;;;5072567;28;20278;-60
2021/03/11 10:16:14;;;;;;;42.85;22.15;;;5.40;99.90;;;;;;5075251;28;20027;-58
2021/03/11 10:18:59;;;;;;;50.22;26.10;;;5.40;99.90;;;;;;5075211;28;20021;-58
2021/03/11 10:21:26;;;;;;;53.20;26.98;;;5.50;99.90;;;;;;5075039;28;20519;-56
2021/03/11 10:23:51;;;;;;;42.75;22.77;;;5.50;99.90;;;;;;5075124;28;20033;-58
2021/03/11 10:26:22;;;;;;;45.63;25.40;;;5.50;99.90;;;;;;5074996;28;20051;-59
2021/03/11 10:28:52;;;;;;;43.17;22.80;;;5.60;99.90;;;;;;5073680;28;20044;-57
2021/03/11 10:31:23;;;;;;;39.78;19.48;;;5.50;99.90;;;;;;5074871;28;20033;-59
2021/03/11 10:34:09;;;;;;;49.08;24.80;;;5.50;99.90;;;;;;5074985;28;20488;-59
2021/03/11 10:36:36;;;;;;;48.95;26.02;;;5.60;99.90;;;;;;5074626;28;20029;-59
2021/03/11 10:39:13;;;;;;;47.35;26.42;;;5.70;99.90;;;;;;5074729;28;20032;-60
2021/03/11 10:41:56;;;;;;;38.88;21.83;;;5.70;99.90;;;;;;5073344;28;20052;-58
2021/03/11 10:44:22;;;;;;;37.05;19.55;;;5.80;99.90;;;;;;5074678;28;20016;-56
2021/03/11 10:46:47;;;;;;;43.50;22.15;;;5.90;99.90;;;;;;5071877;28;20024;-59
2021/03/11 10:49:14;;;;;;;47.35;26.45;;;5.90;99.90;;;;;;5074659;28;20068;-60
2021/03/11 10:51:42;;;;;;;53.17;27.48;;;5.90;99.90;;;;;;5074325;28;20031;-60
2021/03/11 10:54:25;;;;;;;57.97;28.95;;;5.90;99.90;;;;;;5074466;28;20040;-59
2021/03/11 10:57:14;;;;;;;51.47;25.95;;;5.90;99.90;;;;;;5072830;28;20042;-60
2021/03/11 11:00:04;;;;;;;35.95;18.25;;;6.00;99.90;;;;;;5074157;28;20543;-59
2021/03/11 11:02:30;;;;;;;41.72;22.00;;;5.90;99.90;;;;;;5074186;28;20032;-59
2021/03/11 11:05:00;;;;;;;41.05;21.50;;;6.10;99.90;;;;;;5074357;28;20032;-59
2021/03/11 11:07:26;;;;;;;37.97;20.00;;;6.30;99.90;;;;;;5073990;28;20464;-59
2021/03/11 11:09:53;;;;;;;46.58;23.23;;;6.40;99.90;;;;;;5074027;28;20039;-56
2021/03/11 11:12:19;;;;;;;45.55;25.33;;;6.50;99.90;;;;;;5072820;28;20024;-59
2021/03/11 11:14:49;;;;;;;39.53;20.70;;;6.60;99.90;;;;;;5073967;28;20030;-59
2021/03/11 11:17:15;;;;;;;35.97;21.65;;;6.80;99.90;;;;;;5073777;28;20035;-57
2021/03/11 11:19:42;;;;;;;39.92;22.38;;;7.00;99.90;;;;;;5073866;28;20017;-59
2021/03/11 11:22:08;;;;;;;34.70;20.77;;;7.30;99.90;;;;;;5074072;28;20406;-60
2021/03/11 11:24:35;;;;;;;32.17;18.30;;;7.60;99.90;;;;;;5073744;28;20029;-58
2021/03/11 11:27:01;;;;;;;31.92;17.23;;;7.80;99.90;;;;;;5072308;28;20044;-59
2021/03/11 11:29:27;;;;;;;40.30;21.73;;;7.90;99.90;;;;;;5072473;28;20067;-59
2021/03/11 11:31:53;;;;;;;30.50;16.83;;;7.90;99.90;;;;;;5073546;28;20380;-59
2021/03/11 11:34:19;;;;;;;30.08;17.20;;;8.00;99.90;;;;;;5073716;28;20024;-59
2021/03/11 11:36:46;;;;;;;30.73;18.27;;;8.20;99.90;;;;;;5073271;28;20025;-59
2021/03/11 11:39:12;;;;;;;34.03;18.33;;;8.50;99.90;;;;;;5073404;28;20073;-60
2021/03/11 11:41:38;;;;;;;43.50;22.95;;;8.70;99.90;;;;;;5072415;28;20033;-59
2021/03/11 11:44:05;;;;;;;37.72;21.48;;;8.80;99.90;;;;;;5073403;28;20380;-61
2021/03/11 11:46:30;;;;;;;27.83;15.77;;;8.80;99.90;;;;;;5072032;28;20021;-60
2021/03/11 11:48:56;;;;;;;28.10;16.85;;;8.90;99.90;;;;;;5073244;28;20085;-62
2021/03/11 11:51:21;;;;;;;28.30;17.55;;;9.00;99.90;;;;;;5073336;28;20028;-60
2021/03/11 11:53:47;;;;;;;25.63;15.35;;;9.10;99.90;;;;;;5072570;28;20035;-61
2021/03/11 11:56:12;;;;;;;32.80;18.63;;;9.40;99.90;;;;;;5072839;28;20043;-61
2021/03/11 11:58:43;;;;;;;30.25;16.73;;;9.50;99.90;;;;;;5071747;28;20029;-61
2021/03/11 12:01:10;;;;;;;22.98;13.95;;;9.50;99.90;;;;;;5073018;28;20494;-60
2021/03/11 12:03:35;;;;;;;26.63;16.70;;;9.60;99.90;;;;;;5073171;28;20020;-62
2021/03/11 12:06:01;;;;;;;30.58;19.55;;;9.70;99.90;;;;;;5072866;28;20032;-62
2021/03/11 12:08:26;;;;;;;20.77;12.73;;;9.70;99.90;;;;;;5072929;28;20017;-62
2021/03/11 12:10:52;;;;;;;24.58;15.70;;;9.80;99.90;;;;;;5073279;28;20471;-61
2021/03/11 12:13:17;;;;;;;31.00;18.63;;;9.70;99.90;;;;;;5062859;28;20078;-62
2021/03/11 12:15:43;;;;;;;27.80;15.77;;;9.60;99.90;;;;;;5076061;28;20039;-62
2021/03/11 12:18:08;;;;;;;28.00;16.38;;;9.60;99.90;;;;;;5071093;28;20063;-62
2021/03/11 12:20:35;;;;;;;25.08;15.57;;;9.60;99.90;;;;;;5064368;28;20125;-61
2021/03/11 12:23:01;;;;;;;27.80;16.70;;;9.70;99.90;;;;;;5091017;28;20504;-62
2021/03/11 12:25:26;;;;;;;21.88;13.80;;;9.80;99.90;;;;;;5090900;28;20024;-60
2021/03/11 12:27:52;;;;;;;24.45;13.40;;;9.90;99.90;;;;;;5089912;28;20024;-61
2021/03/11 12:30:18;;;;;;;29.40;15.68;;;10.00;99.90;;;;;;5073958;28;20040;-61
2021/03/11 12:32:43;;;;;;;25.88;15.50;;;10.10;99.90;;;;;;5070673;28;20036;-62
2021/03/11 12:35:09;;;;;;;23.80;14.60;;;10.00;99.90;;;;;;5071052;28;20043;-62
2021/03/11 12:37:35;;;;;;;26.60;15.32;;;9.90;99.90;;;;;;5070771;28;20031;-61
2021/03/11 12:40:00;;;;;;;22.00;13.38;;;10.10;99.90;;;;;;5070717;28;20036;-62
2021/03/11 12:42:26;;;;;;;22.15;13.73;;;10.10;99.90;;;;;;5069473;28;20028;-61
2021/03/11 12:44:51;;;;;;;23.13;14.68;;;10.10;99.90;;;;;;5070547;28;20111;-60
2021/03/11 12:47:17;;;;;;;21.10;12.55;;;10.10;99.90;;;;;;5065838;28;20036;-61